createdAt,value
2022-08-28T00:03:38.479Z,1.70
2022-08-28T00:07:47.926Z,2.17
2022-08-28T00:11:54.899Z,1.85
2022-08-28T00:16:01.726Z,1.50
2022-08-28T00:20:10.854Z,1.77
2022-08-28T00:24:18.528Z,1.90
2022-08-28T00:28:25.486Z,2.17
2022-08-28T00:32:34.949Z,1.65
2022-08-28T00:36:41.797Z,2.13
2022-08-28T00:40:52.933Z,1.83
2022-08-28T00:45:01.927Z,2.08
2022-08-28T00:49:09.063Z,2.95
2022-08-28T00:53:16.368Z,2.63
2022-08-28T00:57:37.457Z,1.70
2022-08-28T01:01:46.995Z,2.53
2022-08-28T01:05:53.979Z,2.58
2022-08-28T01:10:01.213Z,2.55
2022-08-28T01:14:09.126Z,2.05
2022-08-28T01:18:17.093Z,2.92
2022-08-28T01:22:29.050Z,2.35
2022-08-28T01:26:38.468Z,2.97
2022-08-28T01:30:47.760Z,3.45
2022-08-28T01:34:54.523Z,2.72
2022-08-28T01:39:16.200Z,2.65
2022-08-28T01:43:26.253Z,2.97
2022-08-28T01:47:33.029Z,2.50
2022-08-28T01:51:41.312Z,2.53
2022-08-28T01:55:48.011Z,2.28
2022-08-28T01:59:54.885Z,2.22
2022-08-28T02:04:04.419Z,2.10
2022-08-28T02:08:11.361Z,2.33
2022-08-28T02:12:18.153Z,2.25
2022-08-28T02:16:25.726Z,2.88
2022-08-28T02:20:33.940Z,2.60
2022-08-28T02:24:40.846Z,3.00
2022-08-28T02:28:48.378Z,2.15
2022-08-28T02:32:55.333Z,2.53
2022-08-28T02:37:02.467Z,2.08
2022-08-28T02:41:09.599Z,2.05
2022-08-28T02:45:18.680Z,1.95
2022-08-28T02:49:25.396Z,1.85
2022-08-28T02:53:39.156Z,1.77
2022-08-28T02:57:47.485Z,1.90
2022-08-28T03:01:54.224Z,1.88
2022-08-28T03:06:02.347Z,2.00
2022-08-28T03:10:10.116Z,1.20
2022-08-28T03:14:16.828Z,1.45
2022-08-28T03:18:30.072Z,1.42
2022-08-28T03:22:55.706Z,1.45
2022-08-28T03:27:02.617Z,1.60
2022-08-28T03:31:11.727Z,1.60
2022-08-28T03:35:18.976Z,0.80
2022-08-28T03:39:25.675Z,0.70
2022-08-28T03:43:33.381Z,1.02
2022-08-28T03:47:42.096Z,0.98
2022-08-28T03:51:49.911Z,1.10
2022-08-28T03:55:58.066Z,1.40
2022-08-28T04:00:08.584Z,4.03
2022-08-28T04:04:15.355Z,1.50
2022-08-28T04:08:23.048Z,1.30
2022-08-28T04:12:30.852Z,1.42
2022-08-28T04:16:42.517Z,1.50
2022-08-28T04:20:58.998Z,1.55
2022-08-28T04:25:07.243Z,1.67
2022-08-28T04:29:14.305Z,1.00
2022-08-28T04:33:22.934Z,1.05
2022-08-28T04:37:29.704Z,1.00
2022-08-28T04:41:39.943Z,0.77
2022-08-28T04:45:46.770Z,0.63
2022-08-28T04:49:55.245Z,0.70
2022-08-28T04:54:03.372Z,0.80
2022-08-28T04:58:10.361Z,0.98
2022-08-28T05:02:17.132Z,1.77
2022-08-28T05:06:26.847Z,2.22
2022-08-28T05:10:35.608Z,1.33
2022-08-28T05:14:42.346Z,1.35
2022-08-28T05:18:49.843Z,1.20
2022-08-28T05:22:56.552Z,1.02
2022-08-28T05:27:03.694Z,1.70
2022-08-28T05:31:16.368Z,1.40
2022-08-28T05:35:24.352Z,1.13
2022-08-28T05:39:31.043Z,1.65
2022-08-28T05:43:38.344Z,1.20
2022-08-28T05:47:45.680Z,1.33
2022-08-28T05:51:52.486Z,2.22
2022-08-28T05:55:59.239Z,1.92
2022-08-28T06:00:07.259Z,1.48
2022-08-28T06:04:17.834Z,1.60
2022-08-28T06:08:24.714Z,1.70
2022-08-28T06:12:31.551Z,1.08
2022-08-28T06:16:41.577Z,2.83
2022-08-28T06:20:48.509Z,1.20
2022-08-28T06:24:55.258Z,1.35
2022-08-28T06:29:04.572Z,1.70
2022-08-28T06:33:12.355Z,1.92
2022-08-28T06:37:19.112Z,1.38
2022-08-28T06:41:27.303Z,2.00
2022-08-28T06:45:34.170Z,0.98
2022-08-28T06:49:41.475Z,0.95
2022-08-28T06:53:48.245Z,1.25
2022-08-28T06:57:54.975Z,1.25
2022-08-28T07:02:02.601Z,0.70
2022-08-28T07:06:11.026Z,1.15
2022-08-28T07:10:18.585Z,1.35
2022-08-28T07:14:25.887Z,0.90
2022-08-28T07:18:33.160Z,0.55
2022-08-28T07:22:43.763Z,0.70
2022-08-28T07:26:50.624Z,0.75
2022-08-28T07:31:20.027Z,1.00
2022-08-28T07:35:26.789Z,0.57
2022-08-28T07:39:34.708Z,0.40
2022-08-28T07:44:00.325Z,0.68
2022-08-28T07:48:11.945Z,0.73
2022-08-28T07:52:18.752Z,0.40
2022-08-28T07:56:28.713Z,0.95
2022-08-28T08:00:35.603Z,0.50
2022-08-28T08:04:42.409Z,0.40
2022-08-28T08:08:49.524Z,0.47
2022-08-28T08:12:56.308Z,0.38
2022-08-28T08:17:04.672Z,0.50
2022-08-28T08:21:16.628Z,0.88
2022-08-28T08:25:23.420Z,0.77
2022-08-28T08:29:35.607Z,0.30
2022-08-28T08:33:48.298Z,0.40
2022-08-28T08:37:55.020Z,0.50
2022-08-28T08:42:04.831Z,0.30
2022-08-28T08:46:11.587Z,0.40
2022-08-28T08:50:22.022Z,1.05
2022-08-28T08:54:29.189Z,0.22
2022-08-28T08:58:47.307Z,1.02
2022-08-28T09:03:04.162Z,0.50
2022-08-28T09:07:25.961Z,0.40
2022-08-28T09:11:32.793Z,0.40
2022-08-28T09:15:47.550Z,0.43
2022-08-28T09:19:57.803Z,0.20
2022-08-28T09:24:11.155Z,0.40
2022-08-28T09:28:26.351Z,0.63
2022-08-28T09:32:38.625Z,0.75
2022-08-28T09:36:45.877Z,0.25
2022-08-28T09:41:31.306Z,0.40
2022-08-28T09:45:38.429Z,0.40
2022-08-28T09:49:45.159Z,0.28
2022-08-28T09:53:51.837Z,0.38
2022-08-28T09:57:59.061Z,0.40
2022-08-28T10:02:40.155Z,0.45
2022-08-28T10:06:55.248Z,0.30
2022-08-28T10:11:16.467Z,0.95
2022-08-28T10:15:43.270Z,0.32
2022-08-28T10:20:11.188Z,0.30
2022-08-28T10:24:26.007Z,0.30
2022-08-28T10:29:17.156Z,0.30
2022-08-28T10:34:02.556Z,0.85
2022-08-28T10:38:14.583Z,0.30
2022-08-28T10:42:36.278Z,0.30
2022-08-28T10:51:01.323Z,0.30
2022-08-28T10:55:22.610Z,0.30
2022-08-28T10:59:32.576Z,0.35
2022-08-28T11:03:49.344Z,0.20
2022-08-28T11:08:06.767Z,0.20
2022-08-28T11:12:19.932Z,0.20
2022-08-28T11:16:30.227Z,0.30
2022-08-28T11:20:39.333Z,0.22
2022-08-28T11:24:48.864Z,0.30
2022-08-28T11:28:56.352Z,0.47
2022-08-28T11:33:06.763Z,0.40
2022-08-28T11:37:41.359Z,0.80
2022-08-28T11:42:09.740Z,0.38
2022-08-28T11:46:19.008Z,0.30
2022-08-28T11:50:31.047Z,0.40
2022-08-28T11:54:56.646Z,0.93
2022-08-28T11:59:40.986Z,0.20
2022-08-28T12:04:01.932Z,0.22
2022-08-28T12:08:13.536Z,0.30
2022-08-28T12:12:23.333Z,0.30
2022-08-28T12:16:30.072Z,0.85
2022-08-28T12:21:07.349Z,0.30
2022-08-28T12:25:24.712Z,0.20
2022-08-28T12:29:38.607Z,0.30
2022-08-28T12:33:57.791Z,0.30
2022-08-28T12:38:09.254Z,0.25
2022-08-28T12:42:22.421Z,0.30
2022-08-28T12:46:35.148Z,0.35
2022-08-28T12:50:41.929Z,0.30
2022-08-28T12:54:50.763Z,0.50
2022-08-28T12:59:27.241Z,0.30
2022-08-28T13:03:34.671Z,0.30
2022-08-28T13:07:49.587Z,0.47
2022-08-28T13:11:56.429Z,0.30
2022-08-28T13:16:09.925Z,0.25
2022-08-28T13:20:25.532Z,0.40
2022-08-28T13:24:35.241Z,0.28
2022-08-28T13:28:43.048Z,0.30
2022-08-28T13:33:17.169Z,0.30
2022-08-28T13:37:58.077Z,0.40
2022-08-28T13:42:15.797Z,0.50
2022-08-28T13:46:22.514Z,0.32
2022-08-28T13:50:29.707Z,0.35
2022-08-28T13:54:36.999Z,0.82
2022-08-28T13:58:47.921Z,0.50
2022-08-28T14:03:23.120Z,0.30
2022-08-28T14:07:30.068Z,0.30
2022-08-28T14:11:36.889Z,0.35
2022-08-28T14:15:43.618Z,0.50
2022-08-28T14:19:50.355Z,0.40
2022-08-28T14:23:58.117Z,0.57
2022-08-28T14:28:04.863Z,0.28
2022-08-28T14:32:11.654Z,0.25
2022-08-28T14:36:24.653Z,0.30
2022-08-28T14:40:31.449Z,0.35
2022-08-28T14:44:38.204Z,0.30
2022-08-28T14:48:45.083Z,0.30
2022-08-28T14:52:51.809Z,0.40
2022-08-28T14:56:58.615Z,0.40
2022-08-28T15:01:05.844Z,0.60
2022-08-28T15:05:13.203Z,0.40
2022-08-28T15:09:19.948Z,0.30
2022-08-28T15:13:31.584Z,0.20
2022-08-28T15:17:38.538Z,0.40
2022-08-28T15:21:50.056Z,0.55
2022-08-28T15:25:56.779Z,0.30
2022-08-28T15:30:05.277Z,0.70
2022-08-28T15:34:18.807Z,0.40
2022-08-28T15:38:26.014Z,0.50
2022-08-28T15:42:33.022Z,0.50
2022-08-28T15:46:40.008Z,0.60
2022-08-28T15:50:46.719Z,0.40
2022-08-28T15:54:55.372Z,0.40
2022-08-28T15:59:02.110Z,0.32
2022-08-28T16:03:08.836Z,0.95
2022-08-28T16:07:16.205Z,0.50
2022-08-28T16:11:23.656Z,0.30
2022-08-28T16:15:30.476Z,0.45
2022-08-28T16:19:38.067Z,0.50
2022-08-28T16:23:44.817Z,0.30
2022-08-28T16:27:51.990Z,0.65
2022-08-28T16:31:58.861Z,0.30
2022-08-28T16:36:11.858Z,0.25
2022-08-28T16:40:18.654Z,0.20
2022-08-28T16:44:26.607Z,0.20
2022-08-28T16:48:33.364Z,0.20
2022-08-28T16:52:40.231Z,0.20
2022-08-28T16:56:47.205Z,0.20
2022-08-28T17:00:54.835Z,0.20
2022-08-28T17:05:03.214Z,0.20
2022-08-28T17:09:10.330Z,0.28
2022-08-28T17:13:17.019Z,0.28
2022-08-28T17:17:24.161Z,0.40
2022-08-28T17:21:49.643Z,0.15
2022-08-28T17:25:56.340Z,0.20
2022-08-28T17:30:05.058Z,0.57
2022-08-28T17:34:12.393Z,0.35
2022-08-28T17:38:19.116Z,0.20
2022-08-28T17:42:25.967Z,0.20
2022-08-28T17:46:37.457Z,0.30
2022-08-28T17:54:53.377Z,0.30
2022-08-28T17:59:00.245Z,0.20
2022-08-28T18:03:07.669Z,0.30
2022-08-28T18:07:14.385Z,0.20
2022-08-28T18:11:21.097Z,0.20
2022-08-28T18:15:28.893Z,0.30
2022-08-28T18:19:35.593Z,0.20
2022-08-28T18:23:42.524Z,0.30
2022-08-28T18:27:49.385Z,0.20
2022-08-28T18:31:56.742Z,0.20
2022-08-28T18:36:08.387Z,0.30
2022-08-28T18:40:15.767Z,0.25
2022-08-28T18:44:24.417Z,0.20
2022-08-28T18:48:32.179Z,0.45
2022-08-28T18:52:38.926Z,0.50
2022-08-28T18:56:47.572Z,0.50
2022-08-28T19:00:56.739Z,0.20
2022-08-28T19:05:04.135Z,0.30
2022-08-28T19:09:11.670Z,0.20
2022-08-28T19:13:27.884Z,0.30
2022-08-28T19:17:39.471Z,0.63
2022-08-28T19:21:46.218Z,0.50
2022-08-28T19:25:52.917Z,0.40
2022-08-28T19:29:59.753Z,0.28
2022-08-28T19:34:08.043Z,0.20
2022-08-28T19:38:14.945Z,0.55
2022-08-28T19:42:22.723Z,0.50
2022-08-28T19:46:29.761Z,0.35
2022-08-28T19:50:37.843Z,0.50
2022-08-28T19:54:44.552Z,0.45
2022-08-28T19:58:51.276Z,0.50
2022-08-28T20:02:58.025Z,0.40
2022-08-28T20:07:04.887Z,0.30
2022-08-28T20:11:24.609Z,0.75
2022-08-28T20:15:31.387Z,0.30
2022-08-28T20:19:38.565Z,0.30
2022-08-28T20:23:45.569Z,0.73
2022-08-28T20:27:52.281Z,0.30
2022-08-28T20:31:59.212Z,0.35
2022-08-28T20:36:07.334Z,0.38
2022-08-28T20:40:22.311Z,0.40
2022-08-28T20:44:29.220Z,1.23
2022-08-28T20:48:36.037Z,0.90
2022-08-28T20:52:42.833Z,0.30
2022-08-28T20:56:50.940Z,0.50
2022-08-28T21:00:59.391Z,0.40
2022-08-28T21:05:07.026Z,0.30
2022-08-28T21:09:17.899Z,0.30
2022-08-28T21:13:24.648Z,0.50
2022-08-28T21:17:31.351Z,0.40
2022-08-28T21:21:38.406Z,0.40
2022-08-28T21:25:45.273Z,0.30
2022-08-28T21:29:55.608Z,0.30
2022-08-28T21:34:02.700Z,0.30
2022-08-28T21:38:09.463Z,0.40
2022-08-28T21:42:16.300Z,0.30
2022-08-28T21:46:23.360Z,0.30
2022-08-28T21:50:30.168Z,0.40
2022-08-28T21:54:38.799Z,0.57
2022-08-28T21:58:45.537Z,0.40
2022-08-28T22:02:52.653Z,0.40
2022-08-28T22:06:59.473Z,0.30
2022-08-28T22:11:07.085Z,0.38
2022-08-28T22:15:14.036Z,0.30
2022-08-28T22:19:20.753Z,0.65
2022-08-28T22:23:29.613Z,0.50
2022-08-28T22:27:36.409Z,0.38
2022-08-28T22:31:46.025Z,0.50
2022-08-28T22:35:53.325Z,0.98
2022-08-28T22:40:00.362Z,0.90
2022-08-28T22:44:07.696Z,1.13
2022-08-28T22:48:16.327Z,0.47
2022-08-28T22:52:23.642Z,0.60
2022-08-28T22:56:30.389Z,0.70
2022-08-28T23:00:38.823Z,0.60
2022-08-28T23:04:45.585Z,0.60
2022-08-28T23:08:58.818Z,0.63
2022-08-28T23:13:06.120Z,0.70
2022-08-28T23:17:12.875Z,1.00
2022-08-28T23:21:21.633Z,1.00
2022-08-28T23:25:29.628Z,0.60
2022-08-28T23:29:36.347Z,0.88
2022-08-28T23:33:43.673Z,0.70
2022-08-28T23:37:51.865Z,0.80
2022-08-28T23:41:58.908Z,0.90
2022-08-28T23:46:06.093Z,0.80
2022-08-28T23:50:19.124Z,0.70
2022-08-28T23:54:25.933Z,0.90
2022-08-28T23:58:32.769Z,0.70
